sensor_id;sensor_type;location;lat;lon;timestamp;temperature;humidity
5459;DHT22;2752;49.992;8.422;2023-01-28T00:01:04;3.70;4.60
5459;DHT22;2752;49.992;8.422;2023-01-28T00:03:31;3.70;4.00
5459;DHT22;2752;49.992;8.422;2023-01-28T00:06:01;3.70;2.40
5459;DHT22;2752;49.992;8.422;2023-01-28T00:08:28;3.60;2.30
5459;DHT22;2752;49.992;8.422;2023-01-28T00:10:57;3.60;1.80
5459;DHT22;2752;49.992;8.422;2023-01-28T00:13:25;3.50;3.30
5459;DHT22;2752;49.992;8.422;2023-01-28T00:15:54;3.50;3.60
5459;DHT22;2752;49.992;8.422;2023-01-28T00:18:21;3.40;4.90
5459;DHT22;2752;49.992;8.422;2023-01-28T00:20:55;3.50;4.90
5459;DHT22;2752;49.992;8.422;2023-01-28T00:23:22;3.60;5.00
5459;DHT22;2752;49.992;8.422;2023-01-28T00:25:49;3.50;7.40
5459;DHT22;2752;49.992;8.422;2023-01-28T00:28:16;3.30;8.60
5459;DHT22;2752;49.992;8.422;2023-01-28T00:30:44;3.30;8.30
5459;DHT22;2752;49.992;8.422;2023-01-28T00:33:10;3.30;8.00
5459;DHT22;2752;49.992;8.422;2023-01-28T00:35:37;3.20;10.70
5459;DHT22;2752;49.992;8.422;2023-01-28T00:38:05;3.30;10.10
5459;DHT22;2752;49.992;8.422;2023-01-28T00:40:33;3.20;9.70
5459;DHT22;2752;49.992;8.422;2023-01-28T00:45:27;3.10;9.40
5459;DHT22;2752;49.992;8.422;2023-01-28T00:47:55;3.10;12.00
5459;DHT22;2752;49.992;8.422;2023-01-28T00:50:21;3.20;12.90
5459;DHT22;2752;49.992;8.422;2023-01-28T00:52:48;3.10;11.30
5459;DHT22;2752;49.992;8.422;2023-01-28T00:55:15;3.10;10.60
5459;DHT22;2752;49.992;8.422;2023-01-28T00:57:41;3.00;11.30
5459;DHT22;2752;49.992;8.422;2023-01-28T01:00:09;3.00;11.40
5459;DHT22;2752;49.992;8.422;2023-01-28T01:02:36;3.00;12.20
5459;DHT22;2752;49.992;8.422;2023-01-28T01:05:05;3.00;12.50
5459;DHT22;2752;49.992;8.422;2023-01-28T01:07:33;3.00;11.90
5459;DHT22;2752;49.992;8.422;2023-01-28T01:10:08;3.00;10.40
5459;DHT22;2752;49.992;8.422;2023-01-28T01:12:35;3.10;10.90
5459;DHT22;2752;49.992;8.422;2023-01-28T01:15:03;3.10;9.40
5459;DHT22;2752;49.992;8.422;2023-01-28T01:20:05;3.10;7.80
5459;DHT22;2752;49.992;8.422;2023-01-28T01:22:33;3.20;7.90
5459;DHT22;2752;49.992;8.422;2023-01-28T01:25:00;3.10;6.40
5459;DHT22;2752;49.992;8.422;2023-01-28T01:27:28;3.20;7.00
5459;DHT22;2752;49.992;8.422;2023-01-28T01:29:54;3.10;5.40
5459;DHT22;2752;49.992;8.422;2023-01-28T01:32:21;3.20;5.10
5459;DHT22;2752;49.992;8.422;2023-01-28T01:34:48;3.20;4.40
5459;DHT22;2752;49.992;8.422;2023-01-28T01:37:16;3.20;4.10
5459;DHT22;2752;49.992;8.422;2023-01-28T01:39:42;3.40;4.10
5459;DHT22;2752;49.992;8.422;2023-01-28T01:42:10;3.30;3.20
5459;DHT22;2752;49.992;8.422;2023-01-28T01:44:54;3.30;2.20
5459;DHT22;2752;49.992;8.422;2023-01-28T01:47:23;3.30;2.70
5459;DHT22;2752;49.992;8.422;2023-01-28T01:49:50;3.40;1.70
5459;DHT22;2752;49.992;8.422;2023-01-28T01:52:22;3.40;1.00
5459;DHT22;2752;49.992;8.422;2023-01-28T01:54:52;3.40;1.00
5459;DHT22;2752;49.992;8.422;2023-01-28T01:57:23;3.40;1.00
5459;DHT22;2752;49.992;8.422;2023-01-28T01:59:52;3.30;1.00
5459;DHT22;2752;49.992;8.422;2023-01-28T02:02:19;3.30;1.00
5459;DHT22;2752;49.992;8.422;2023-01-28T02:04:47;3.30;1.00
5459;DHT22;2752;49.992;8.422;2023-01-28T02:07:14;3.20;1.00
5459;DHT22;2752;49.992;8.422;2023-01-28T02:09:42;3.20;1.00
5459;DHT22;2752;49.992;8.422;2023-01-28T02:12:11;3.30;1.00
5459;DHT22;2752;49.992;8.422;2023-01-28T02:14:44;3.30;1.00
5459;DHT22;2752;49.992;8.422;2023-01-28T02:17:12;3.20;1.00
5459;DHT22;2752;49.992;8.422;2023-01-28T02:19:43;3.20;1.00
5459;DHT22;2752;49.992;8.422;2023-01-28T02:25:28;3.30;1.00
5459;DHT22;2752;49.992;8.422;2023-01-28T02:28:25;3.20;1.00
5459;DHT22;2752;49.992;8.422;2023-01-28T02:31:00;3.20;1.00
5459;DHT22;2752;49.992;8.422;2023-01-28T02:33:32;3.10;1.00
5459;DHT22;2752;49.992;8.422;2023-01-28T02:36:11;3.20;1.70
5459;DHT22;2752;49.992;8.422;2023-01-28T02:38:43;3.30;1.70
5459;DHT22;2752;49.992;8.422;2023-01-28T02:41:16;3.30;2.30
5459;DHT22;2752;49.992;8.422;2023-01-28T02:43:46;3.30;3.00
5459;DHT22;2752;49.992;8.422;2023-01-28T02:46:31;3.40;3.60
5459;DHT22;2752;49.992;8.422;2023-01-28T02:49:18;3.40;4.80
5459;DHT22;2752;49.992;8.422;2023-01-28T02:54:38;3.10;6.40
5459;DHT22;2752;49.992;8.422;2023-01-28T02:57:14;3.20;6.50
5459;DHT22;2752;49.992;8.422;2023-01-28T02:59:49;3.10;7.50
5459;DHT22;2752;49.992;8.422;2023-01-28T03:02:21;3.10;8.10
5459;DHT22;2752;49.992;8.422;2023-01-28T03:04:52;3.10;9.90
5459;DHT22;2752;49.992;8.422;2023-01-28T03:07:21;3.10;9.90
5459;DHT22;2752;49.992;8.422;2023-01-28T03:09:49;3.20;8.60
5459;DHT22;2752;49.992;8.422;2023-01-28T03:12:19;3.10;8.00
5459;DHT22;2752;49.992;8.422;2023-01-28T03:15:09;3.20;7.80
5459;DHT22;2752;49.992;8.422;2023-01-28T03:17:57;3.20;7.60
5459;DHT22;2752;49.992;8.422;2023-01-28T03:20:47;3.10;6.50
5459;DHT22;2752;49.992;8.422;2023-01-28T03:23:38;3.20;7.40
5459;DHT22;2752;49.992;8.422;2023-01-28T03:26:24;3.20;8.10
5459;DHT22;2752;49.992;8.422;2023-01-28T03:29:13;3.20;6.50
5459;DHT22;2752;49.992;8.422;2023-01-28T03:32:00;3.30;7.10
5459;DHT22;2752;49.992;8.422;2023-01-28T03:34:45;3.20;8.60
5459;DHT22;2752;49.992;8.422;2023-01-28T03:37:30;3.20;9.80
5459;DHT22;2752;49.992;8.422;2023-01-28T03:40:01;3.40;9.00
5459;DHT22;2752;49.992;8.422;2023-01-28T03:42:30;3.20;7.70
5459;DHT22;2752;49.992;8.422;2023-01-28T03:44:57;3.20;8.90
5459;DHT22;2752;49.992;8.422;2023-01-28T03:47:28;3.20;8.90
5459;DHT22;2752;49.992;8.422;2023-01-28T03:49:56;3.20;10.60
5459;DHT22;2752;49.992;8.422;2023-01-28T03:52:25;3.20;10.20
5459;DHT22;2752;49.992;8.422;2023-01-28T03:54:52;3.20;10.80
5459;DHT22;2752;49.992;8.422;2023-01-28T03:57:22;3.20;12.10
5459;DHT22;2752;49.992;8.422;2023-01-28T03:59:49;3.30;11.30
5459;DHT22;2752;49.992;8.422;2023-01-28T04:02:17;3.30;10.90
5459;DHT22;2752;49.992;8.422;2023-01-28T04:04:46;3.30;11.10
5459;DHT22;2752;49.992;8.422;2023-01-28T04:07:13;3.30;10.60
5459;DHT22;2752;49.992;8.422;2023-01-28T04:09:40;3.30;10.20
5459;DHT22;2752;49.992;8.422;2023-01-28T04:12:07;3.30;9.10
5459;DHT22;2752;49.992;8.422;2023-01-28T04:14:35;3.30;8.60
5459;DHT22;2752;49.992;8.422;2023-01-28T04:17:01;3.50;10.60
5459;DHT22;2752;49.992;8.422;2023-01-28T04:19:28;3.20;11.80
5459;DHT22;2752;49.992;8.422;2023-01-28T04:21:59;3.20;13.90
5459;DHT22;2752;49.992;8.422;2023-01-28T04:24:26;3.10;15.80
5459;DHT22;2752;49.992;8.422;2023-01-28T04:26:52;3.10;17.90
5459;DHT22;2752;49.992;8.422;2023-01-28T04:29:19;3.10;19.90
5459;DHT22;2752;49.992;8.422;2023-01-28T04:31:46;3.10;20.80
5459;DHT22;2752;49.992;8.422;2023-01-28T04:34:12;3.10;20.80
5459;DHT22;2752;49.992;8.422;2023-01-28T04:36:39;3.00;19.60
5459;DHT22;2752;49.992;8.422;2023-01-28T04:39:07;3.00;18.60
5459;DHT22;2752;49.992;8.422;2023-01-28T04:41:33;2.90;18.20
5459;DHT22;2752;49.992;8.422;2023-01-28T04:44:00;3.00;17.10
5459;DHT22;2752;49.992;8.422;2023-01-28T04:46:26;3.10;16.40
5459;DHT22;2752;49.992;8.422;2023-01-28T04:48:53;3.10;11.80
5459;DHT22;2752;49.992;8.422;2023-01-28T04:51:20;3.20;10.30
5459;DHT22;2752;49.992;8.422;2023-01-28T04:53:46;3.40;9.20
5459;DHT22;2752;49.992;8.422;2023-01-28T04:56:14;3.30;6.60
5459;DHT22;2752;49.992;8.422;2023-01-28T04:58:41;3.30;6.00
5459;DHT22;2752;49.992;8.422;2023-01-28T05:01:07;3.10;5.30
5459;DHT22;2752;49.992;8.422;2023-01-28T05:03:34;3.00;5.90
5459;DHT22;2752;49.992;8.422;2023-01-28T05:06:01;2.90;8.70
5459;DHT22;2752;49.992;8.422;2023-01-28T05:08:29;2.90;10.50
5459;DHT22;2752;49.992;8.422;2023-01-28T05:10:56;2.80;10.80
5459;DHT22;2752;49.992;8.422;2023-01-28T05:13:24;2.80;10.20
5459;DHT22;2752;49.992;8.422;2023-01-28T05:15:51;2.80;8.50
5459;DHT22;2752;49.992;8.422;2023-01-28T05:18:18;2.80;6.50
5459;DHT22;2752;49.992;8.422;2023-01-28T05:20:45;2.80;5.90
5459;DHT22;2752;49.992;8.422;2023-01-28T05:23:12;2.80;5.30
5459;DHT22;2752;49.992;8.422;2023-01-28T05:25:39;2.80;2.30
5459;DHT22;2752;49.992;8.422;2023-01-28T05:28:05;2.80;3.10
5459;DHT22;2752;49.992;8.422;2023-01-28T05:30:33;2.80;3.50
5459;DHT22;2752;49.992;8.422;2023-01-28T05:33:00;2.80;1.50
5459;DHT22;2752;49.992;8.422;2023-01-28T05:35:27;2.90;1.60
5459;DHT22;2752;49.992;8.422;2023-01-28T05:37:53;2.80;1.00
5459;DHT22;2752;49.992;8.422;2023-01-28T05:40:20;2.80;1.00
5459;DHT22;2752;49.992;8.422;2023-01-28T05:42:47;2.80;1.00
5459;DHT22;2752;49.992;8.422;2023-01-28T05:45:13;2.80;1.00
5459;DHT22;2752;49.992;8.422;2023-01-28T05:47:41;2.80;1.00
5459;DHT22;2752;49.992;8.422;2023-01-28T05:50:09;2.80;1.00
5459;DHT22;2752;49.992;8.422;2023-01-28T05:52:38;2.80;1.00
5459;DHT22;2752;49.992;8.422;2023-01-28T05:55:06;2.80;1.00
5459;DHT22;2752;49.992;8.422;2023-01-28T05:57:32;2.80;1.00
5459;DHT22;2752;49.992;8.422;2023-01-28T05:59:59;2.90;1.00
5459;DHT22;2752;49.992;8.422;2023-01-28T06:02:26;3.00;1.00
5459;DHT22;2752;49.992;8.422;2023-01-28T06:04:54;2.90;1.00
5459;DHT22;2752;49.992;8.422;2023-01-28T06:07:20;2.90;1.00
5459;DHT22;2752;49.992;8.422;2023-01-28T06:09:48;2.80;1.00
5459;DHT22;2752;49.992;8.422;2023-01-28T06:12:15;2.80;1.00
5459;DHT22;2752;49.992;8.422;2023-01-28T06:14:41;2.90;1.00
5459;DHT22;2752;49.992;8.422;2023-01-28T06:17:08;2.90;1.00
5459;DHT22;2752;49.992;8.422;2023-01-28T06:19:35;2.90;1.00
5459;DHT22;2752;49.992;8.422;2023-01-28T06:22:03;2.80;1.00
5459;DHT22;2752;49.992;8.422;2023-01-28T06:24:29;2.80;1.00
5459;DHT22;2752;49.992;8.422;2023-01-28T06:26:56;2.90;1.00
5459;DHT22;2752;49.992;8.422;2023-01-28T06:29:23;2.90;1.00
5459;DHT22;2752;49.992;8.422;2023-01-28T06:31:50;2.90;1.00
5459;DHT22;2752;49.992;8.422;2023-01-28T06:34:16;2.80;1.00
5459;DHT22;2752;49.992;8.422;2023-01-28T06:36:43;2.80;1.00
5459;DHT22;2752;49.992;8.422;2023-01-28T06:39:11;2.90;1.00
5459;DHT22;2752;49.992;8.422;2023-01-28T06:41:38;2.90;1.00
5459;DHT22;2752;49.992;8.422;2023-01-28T06:44:05;2.80;1.00
5459;DHT22;2752;49.992;8.422;2023-01-28T06:46:31;2.80;1.00
5459;DHT22;2752;49.992;8.422;2023-01-28T06:48:58;2.70;1.00
5459;DHT22;2752;49.992;8.422;2023-01-28T06:51:25;2.90;1.00
5459;DHT22;2752;49.992;8.422;2023-01-28T06:53:51;2.70;1.00
5459;DHT22;2752;49.992;8.422;2023-01-28T06:56:19;2.90;1.00
5459;DHT22;2752;49.992;8.422;2023-01-28T06:58:46;2.70;1.00
5459;DHT22;2752;49.992;8.422;2023-01-28T07:01:12;2.70;1.00
5459;DHT22;2752;49.992;8.422;2023-01-28T07:03:39;2.70;1.00
5459;DHT22;2752;49.992;8.422;2023-01-28T07:06:06;2.70;1.00
5459;DHT22;2752;49.992;8.422;2023-01-28T07:08:33;2.70;1.00
5459;DHT22;2752;49.992;8.422;2023-01-28T07:11:00;2.70;1.00
5459;DHT22;2752;49.992;8.422;2023-01-28T07:13:30;2.70;1.00
5459;DHT22;2752;49.992;8.422;2023-01-28T07:15:57;2.70;1.00
5459;DHT22;2752;49.992;8.422;2023-01-28T07:18:24;2.70;1.00
5459;DHT22;2752;49.992;8.422;2023-01-28T07:20:51;2.70;1.00
5459;DHT22;2752;49.992;8.422;2023-01-28T07:23:18;2.70;1.00
5459;DHT22;2752;49.992;8.422;2023-01-28T07:25:44;2.70;1.00
5459;DHT22;2752;49.992;8.422;2023-01-28T07:28:11;2.70;1.00
5459;DHT22;2752;49.992;8.422;2023-01-28T07:30:39;2.70;1.00
5459;DHT22;2752;49.992;8.422;2023-01-28T07:33:06;2.70;1.00
5459;DHT22;2752;49.992;8.422;2023-01-28T07:35:33;2.70;1.00
5459;DHT22;2752;49.992;8.422;2023-01-28T07:38:00;2.80;1.00
5459;DHT22;2752;49.992;8.422;2023-01-28T07:40:27;2.80;1.00
5459;DHT22;2752;49.992;8.422;2023-01-28T07:42:54;2.80;1.00
5459;DHT22;2752;49.992;8.422;2023-01-28T07:45:21;2.80;1.00
5459;DHT22;2752;49.992;8.422;2023-01-28T07:47:54;2.70;1.00
5459;DHT22;2752;49.992;8.422;2023-01-28T07:50:21;2.70;1.00
5459;DHT22;2752;49.992;8.422;2023-01-28T07:52:48;2.80;1.00
5459;DHT22;2752;49.992;8.422;2023-01-28T07:55:14;2.80;1.00
5459;DHT22;2752;49.992;8.422;2023-01-28T07:57:49;2.80;1.00
5459;DHT22;2752;49.992;8.422;2023-01-28T08:00:17;2.80;1.00
5459;DHT22;2752;49.992;8.422;2023-01-28T08:02:44;2.80;1.00
5459;DHT22;2752;49.992;8.422;2023-01-28T08:05:14;2.90;1.00
5459;DHT22;2752;49.992;8.422;2023-01-28T08:07:41;2.80;1.00
5459;DHT22;2752;49.992;8.422;2023-01-28T08:10:09;2.80;1.00
5459;DHT22;2752;49.992;8.422;2023-01-28T08:12:35;2.80;1.00
5459;DHT22;2752;49.992;8.422;2023-01-28T08:15:03;3.10;1.00
5459;DHT22;2752;49.992;8.422;2023-01-28T08:17:30;2.80;1.00
5459;DHT22;2752;49.992;8.422;2023-01-28T08:19:57;2.80;1.00
5459;DHT22;2752;49.992;8.422;2023-01-28T08:22:25;2.80;1.00
5459;DHT22;2752;49.992;8.422;2023-01-28T08:24:52;2.80;1.00
5459;DHT22;2752;49.992;8.422;2023-01-28T08:27:19;2.90;1.00
5459;DHT22;2752;49.992;8.422;2023-01-28T08:29:46;2.80;1.00
5459;DHT22;2752;49.992;8.422;2023-01-28T08:32:12;2.90;1.00
5459;DHT22;2752;49.992;8.422;2023-01-28T08:34:39;2.90;1.00
5459;DHT22;2752;49.992;8.422;2023-01-28T08:37:05;2.90;1.00
5459;DHT22;2752;49.992;8.422;2023-01-28T08:39:33;3.00;1.00
5459;DHT22;2752;49.992;8.422;2023-01-28T08:42:00;2.90;1.00
5459;DHT22;2752;49.992;8.422;2023-01-28T08:44:27;2.90;1.00
5459;DHT22;2752;49.992;8.422;2023-01-28T08:46:53;3.00;1.00
5459;DHT22;2752;49.992;8.422;2023-01-28T08:49:20;3.10;1.00
5459;DHT22;2752;49.992;8.422;2023-01-28T08:51:47;3.10;1.00
5459;DHT22;2752;49.992;8.422;2023-01-28T08:54:14;3.30;1.00
5459;DHT22;2752;49.992;8.422;2023-01-28T08:56:42;3.30;1.00
5459;DHT22;2752;49.992;8.422;2023-01-28T08:59:09;3.10;1.00
5459;DHT22;2752;49.992;8.422;2023-01-28T09:01:36;3.20;1.00
5459;DHT22;2752;49.992;8.422;2023-01-28T09:04:02;3.10;1.00
5459;DHT22;2752;49.992;8.422;2023-01-28T09:06:29;3.20;1.00
5459;DHT22;2752;49.992;8.422;2023-01-28T09:08:56;3.10;1.00
5459;DHT22;2752;49.992;8.422;2023-01-28T09:11:23;3.00;1.00
5459;DHT22;2752;49.992;8.422;2023-01-28T09:13:51;3.00;1.00
5459;DHT22;2752;49.992;8.422;2023-01-28T09:16:17;3.10;1.00
5459;DHT22;2752;49.992;8.422;2023-01-28T09:18:44;3.00;1.00
5459;DHT22;2752;49.992;8.422;2023-01-28T09:21:12;2.90;1.00
5459;DHT22;2752;49.992;8.422;2023-01-28T09:23:39;2.90;1.00
5459;DHT22;2752;49.992;8.422;2023-01-28T09:26:06;3.00;1.00
5459;DHT22;2752;49.992;8.422;2023-01-28T09:28:33;3.00;1.00
5459;DHT22;2752;49.992;8.422;2023-01-28T09:31:03;3.00;1.00
5459;DHT22;2752;49.992;8.422;2023-01-28T09:33:30;3.10;1.00
5459;DHT22;2752;49.992;8.422;2023-01-28T09:35:59;3.00;1.00
5459;DHT22;2752;49.992;8.422;2023-01-28T09:38:26;3.00;1.00
5459;DHT22;2752;49.992;8.422;2023-01-28T09:40:52;2.90;1.00
5459;DHT22;2752;49.992;8.422;2023-01-28T09:43:36;3.00;1.00
5459;DHT22;2752;49.992;8.422;2023-01-28T09:46:10;2.90;1.00
5459;DHT22;2752;49.992;8.422;2023-01-28T09:48:40;2.90;1.00
5459;DHT22;2752;49.992;8.422;2023-01-28T09:51:27;3.00;1.00
5459;DHT22;2752;49.992;8.422;2023-01-28T09:53:59;2.70;1.00
5459;DHT22;2752;49.992;8.422;2023-01-28T09:56:30;3.10;1.00
5459;DHT22;2752;49.992;8.422;2023-01-28T09:58:57;3.20;1.00
5459;DHT22;2752;49.992;8.422;2023-01-28T10:01:36;3.10;1.00
5459;DHT22;2752;49.992;8.422;2023-01-28T10:04:12;3.20;1.00
5459;DHT22;2752;49.992;8.422;2023-01-28T10:06:47;3.20;1.00
5459;DHT22;2752;49.992;8.422;2023-01-28T10:09:29;3.30;1.00
5459;DHT22;2752;49.992;8.422;2023-01-28T10:12:12;3.20;1.00
5459;DHT22;2752;49.992;8.422;2023-01-28T10:14:48;3.30;1.00
5459;DHT22;2752;49.992;8.422;2023-01-28T10:17:23;3.30;1.00
5459;DHT22;2752;49.992;8.422;2023-01-28T10:19:55;3.30;1.00
5459;DHT22;2752;49.992;8.422;2023-01-28T10:22:24;3.30;1.00
5459;DHT22;2752;49.992;8.422;2023-01-28T10:24:54;3.30;1.00
5459;DHT22;2752;49.992;8.422;2023-01-28T10:27:28;3.20;1.00
5459;DHT22;2752;49.992;8.422;2023-01-28T10:29:58;3.30;1.00
5459;DHT22;2752;49.992;8.422;2023-01-28T10:32:29;3.30;1.00
5459;DHT22;2752;49.992;8.422;2023-01-28T10:34:56;3.30;1.00
5459;DHT22;2752;49.992;8.422;2023-01-28T10:37:26;3.20;1.00
5459;DHT22;2752;49.992;8.422;2023-01-28T10:39:56;3.20;1.00
5459;DHT22;2752;49.992;8.422;2023-01-28T10:42:27;3.20;1.00
5459;DHT22;2752;49.992;8.422;2023-01-28T10:44:57;3.20;1.00
5459;DHT22;2752;49.992;8.422;2023-01-28T10:47:30;2.60;1.00
5459;DHT22;2752;49.992;8.422;2023-01-28T10:49:58;3.10;1.00
5459;DHT22;2752;49.992;8.422;2023-01-28T10:52:25;3.10;1.00
5459;DHT22;2752;49.992;8.422;2023-01-28T10:54:59;3.20;1.00
5459;DHT22;2752;49.992;8.422;2023-01-28T10:57:26;3.20;1.00
5459;DHT22;2752;49.992;8.422;2023-01-28T10:59:53;3.20;1.00
5459;DHT22;2752;49.992;8.422;2023-01-28T11:02:25;3.20;1.00
5459;DHT22;2752;49.992;8.422;2023-01-28T11:05:02;3.10;1.00
5459;DHT22;2752;49.992;8.422;2023-01-28T11:07:29;3.20;1.00
5459;DHT22;2752;49.992;8.422;2023-01-28T11:09:56;3.20;1.00
5459;DHT22;2752;49.992;8.422;2023-01-28T11:12:24;3.30;1.00
5459;DHT22;2752;49.992;8.422;2023-01-28T11:14:52;3.30;1.00
5459;DHT22;2752;49.992;8.422;2023-01-28T11:17:21;3.40;1.00
5459;DHT22;2752;49.992;8.422;2023-01-28T11:19:50;3.40;1.00
5459;DHT22;2752;49.992;8.422;2023-01-28T11:22:25;3.40;1.00
5459;DHT22;2752;49.992;8.422;2023-01-28T11:24:54;3.40;1.00
5459;DHT22;2752;49.992;8.422;2023-01-28T11:27:26;3.40;1.00
5459;DHT22;2752;49.992;8.422;2023-01-28T11:29:56;3.30;1.00
5459;DHT22;2752;49.992;8.422;2023-01-28T11:32:27;3.40;1.00
5459;DHT22;2752;49.992;8.422;2023-01-28T11:34:55;3.30;1.00
5459;DHT22;2752;49.992;8.422;2023-01-28T11:37:25;3.20;1.00
5459;DHT22;2752;49.992;8.422;2023-01-28T11:40:14;3.20;1.00
5459;DHT22;2752;49.992;8.422;2023-01-28T11:42:44;3.20;1.00
5459;DHT22;2752;49.992;8.422;2023-01-28T11:45:15;3.20;1.00
5459;DHT22;2752;49.992;8.422;2023-01-28T11:48:02;3.20;1.00
5459;DHT22;2752;49.992;8.422;2023-01-28T11:50:38;3.20;1.00
5459;DHT22;2752;49.992;8.422;2023-01-28T11:53:21;3.20;1.00
5459;DHT22;2752;49.992;8.422;2023-01-28T11:55:58;3.10;1.00
5459;DHT22;2752;49.992;8.422;2023-01-28T11:58:32;3.10;1.00
5459;DHT22;2752;49.992;8.422;2023-01-28T12:01:08;3.10;1.00
5459;DHT22;2752;49.992;8.422;2023-01-28T12:03:58;3.10;1.00
5459;DHT22;2752;49.992;8.422;2023-01-28T12:06:41;3.20;1.00
5459;DHT22;2752;49.992;8.422;2023-01-28T12:09:16;3.10;1.00
5459;DHT22;2752;49.992;8.422;2023-01-28T12:11:53;3.30;1.00
5459;DHT22;2752;49.992;8.422;2023-01-28T12:17:56;3.20;1.00
5459;DHT22;2752;49.992;8.422;2023-01-28T12:20:28;3.20;1.00
5459;DHT22;2752;49.992;8.422;2023-01-28T12:23:24;3.20;1.00
5459;DHT22;2752;49.992;8.422;2023-01-28T12:26:05;3.20;1.00
5459;DHT22;2752;49.992;8.422;2023-01-28T12:28:51;3.10;1.00
5459;DHT22;2752;49.992;8.422;2023-01-28T12:31:37;3.10;1.00
5459;DHT22;2752;49.992;8.422;2023-01-28T12:34:45;3.00;1.00
5459;DHT22;2752;49.992;8.422;2023-01-28T12:37:21;3.00;1.00
5459;DHT22;2752;49.992;8.422;2023-01-28T12:39:58;2.90;1.00
5459;DHT22;2752;49.992;8.422;2023-01-28T12:42:31;3.10;1.00
5459;DHT22;2752;49.992;8.422;2023-01-28T12:45:09;2.80;1.00
5459;DHT22;2752;49.992;8.422;2023-01-28T12:47:43;2.70;1.00
5459;DHT22;2752;49.992;8.422;2023-01-28T12:50:16;2.70;1.00
5459;DHT22;2752;49.992;8.422;2023-01-28T12:52:48;2.60;1.00
5459;DHT22;2752;49.992;8.422;2023-01-28T12:55:19;2.70;1.00
5459;DHT22;2752;49.992;8.422;2023-01-28T12:57:49;2.80;1.00
5459;DHT22;2752;49.992;8.422;2023-01-28T13:00:22;2.80;1.00
5459;DHT22;2752;49.992;8.422;2023-01-28T13:02:56;2.80;1.00
5459;DHT22;2752;49.992;8.422;2023-01-28T13:05:31;2.80;1.00
5459;DHT22;2752;49.992;8.422;2023-01-28T13:08:02;2.60;1.00
5459;DHT22;2752;49.992;8.422;2023-01-28T13:10:35;2.70;1.00
5459;DHT22;2752;49.992;8.422;2023-01-28T13:13:05;2.80;1.00
5459;DHT22;2752;49.992;8.422;2023-01-28T13:15:34;2.70;1.00
5459;DHT22;2752;49.992;8.422;2023-01-28T13:18:04;2.70;1.00
5459;DHT22;2752;49.992;8.422;2023-01-28T13:20:37;2.70;1.00
5459;DHT22;2752;49.992;8.422;2023-01-28T13:23:21;2.60;1.00
5459;DHT22;2752;49.992;8.422;2023-01-28T13:25:49;2.80;1.00
5459;DHT22;2752;49.992;8.422;2023-01-28T13:28:27;2.70;1.00
5459;DHT22;2752;49.992;8.422;2023-01-28T13:31:00;2.70;1.00
5459;DHT22;2752;49.992;8.422;2023-01-28T13:33:30;2.60;1.00
5459;DHT22;2752;49.992;8.422;2023-01-28T13:36:00;2.60;1.00
5459;DHT22;2752;49.992;8.422;2023-01-28T13:38:28;2.60;1.00
5459;DHT22;2752;49.992;8.422;2023-01-28T13:40:56;2.70;1.00
5459;DHT22;2752;49.992;8.422;2023-01-28T13:43:33;2.80;1.00
5459;DHT22;2752;49.992;8.422;2023-01-28T13:46:04;2.70;1.00
5459;DHT22;2752;49.992;8.422;2023-01-28T13:48:34;2.70;1.00
5459;DHT22;2752;49.992;8.422;2023-01-28T13:51:11;2.80;1.00
5459;DHT22;2752;49.992;8.422;2023-01-28T13:53:45;2.90;1.00
5459;DHT22;2752;49.992;8.422;2023-01-28T13:56:20;3.00;1.00
5459;DHT22;2752;49.992;8.422;2023-01-28T14:05:00;2.90;1.00
5459;DHT22;2752;49.992;8.422;2023-01-28T14:10:48;2.90;1.00
5459;DHT22;2752;49.992;8.422;2023-01-28T14:13:35;3.00;1.00
5459;DHT22;2752;49.992;8.422;2023-01-28T14:16:24;2.90;1.00
5459;DHT22;2752;49.992;8.422;2023-01-28T14:18:56;3.10;1.00
5459;DHT22;2752;49.992;8.422;2023-01-28T14:21:25;3.00;1.00
5459;DHT22;2752;49.992;8.422;2023-01-28T14:23:55;3.10;1.00
5459;DHT22;2752;49.992;8.422;2023-01-28T14:26:31;3.00;1.00
5459;DHT22;2752;49.992;8.422;2023-01-28T14:29:09;2.90;1.00
5459;DHT22;2752;49.992;8.422;2023-01-28T14:31:41;2.80;1.00
5459;DHT22;2752;49.992;8.422;2023-01-28T14:34:13;2.70;1.00
5459;DHT22;2752;49.992;8.422;2023-01-28T14:36:43;2.70;1.00
5459;DHT22;2752;49.992;8.422;2023-01-28T14:39:16;2.70;1.00
5459;DHT22;2752;49.992;8.422;2023-01-28T14:41:45;2.70;1.00
5459;DHT22;2752;49.992;8.422;2023-01-28T14:44:24;2.70;1.00
5459;DHT22;2752;49.992;8.422;2023-01-28T14:47:04;2.70;1.00
5459;DHT22;2752;49.992;8.422;2023-01-28T14:49:38;2.70;1.00
5459;DHT22;2752;49.992;8.422;2023-01-28T14:52:20;2.70;1.00
5459;DHT22;2752;49.992;8.422;2023-01-28T14:54:59;2.60;1.00
5459;DHT22;2752;49.992;8.422;2023-01-28T14:57:39;2.70;1.00
5459;DHT22;2752;49.992;8.422;2023-01-28T15:00:18;2.60;1.00
5459;DHT22;2752;49.992;8.422;2023-01-28T15:02:46;2.60;1.00
5459;DHT22;2752;49.992;8.422;2023-01-28T15:05:16;2.50;1.00
5459;DHT22;2752;49.992;8.422;2023-01-28T15:07:44;2.50;1.00
5459;DHT22;2752;49.992;8.422;2023-01-28T15:10:17;2.60;1.00
5459;DHT22;2752;49.992;8.422;2023-01-28T15:12:48;2.60;1.00
5459;DHT22;2752;49.992;8.422;2023-01-28T15:15:23;2.60;1.00
5459;DHT22;2752;49.992;8.422;2023-01-28T15:17:52;2.70;1.00
5459;DHT22;2752;49.992;8.422;2023-01-28T15:20:21;2.80;1.00
5459;DHT22;2752;49.992;8.422;2023-01-28T15:22:49;2.70;1.00
5459;DHT22;2752;49.992;8.422;2023-01-28T15:25:18;2.70;1.00
5459;DHT22;2752;49.992;8.422;2023-01-28T15:27:46;2.80;1.00
5459;DHT22;2752;49.992;8.422;2023-01-28T15:30:24;2.80;1.00
5459;DHT22;2752;49.992;8.422;2023-01-28T15:33:03;2.70;1.00
5459;DHT22;2752;49.992;8.422;2023-01-28T15:35:31;2.70;1.00
5459;DHT22;2752;49.992;8.422;2023-01-28T15:37:57;2.30;1.00
5459;DHT22;2752;49.992;8.422;2023-01-28T15:40:25;2.60;1.00
5459;DHT22;2752;49.992;8.422;2023-01-28T15:42:53;2.70;1.00
5459;DHT22;2752;49.992;8.422;2023-01-28T15:45:22;2.60;1.00
5459;DHT22;2752;49.992;8.422;2023-01-28T15:47:52;2.50;1.00
5459;DHT22;2752;49.992;8.422;2023-01-28T15:50:22;2.50;1.00
5459;DHT22;2752;49.992;8.422;2023-01-28T15:52:51;2.40;1.00
5459;DHT22;2752;49.992;8.422;2023-01-28T15:55:36;2.50;1.00
5459;DHT22;2752;49.992;8.422;2023-01-28T15:58:27;2.50;1.00
5459;DHT22;2752;49.992;8.422;2023-01-28T16:01:18;2.60;1.00
5459;DHT22;2752;49.992;8.422;2023-01-28T16:03:47;2.70;1.00
5459;DHT22;2752;49.992;8.422;2023-01-28T16:06:30;2.50;1.00
5459;DHT22;2752;49.992;8.422;2023-01-28T16:09:00;2.40;1.00
5459;DHT22;2752;49.992;8.422;2023-01-28T16:11:30;2.60;1.00
5459;DHT22;2752;49.992;8.422;2023-01-28T16:13:58;2.40;1.00
5459;DHT22;2752;49.992;8.422;2023-01-28T16:16:30;2.60;1.00
5459;DHT22;2752;49.992;8.422;2023-01-28T16:18:58;2.50;1.00
5459;DHT22;2752;49.992;8.422;2023-01-28T16:21:29;2.50;1.00
5459;DHT22;2752;49.992;8.422;2023-01-28T16:24:00;2.40;1.00
5459;DHT22;2752;49.992;8.422;2023-01-28T16:26:29;2.30;1.00
5459;DHT22;2752;49.992;8.422;2023-01-28T16:28:56;2.30;1.00
5459;DHT22;2752;49.992;8.422;2023-01-28T16:31:23;2.40;1.00
5459;DHT22;2752;49.992;8.422;2023-01-28T16:33:50;2.30;1.00
5459;DHT22;2752;49.992;8.422;2023-01-28T16:36:17;2.40;1.00
5459;DHT22;2752;49.992;8.422;2023-01-28T16:38:46;2.30;1.00
5459;DHT22;2752;49.992;8.422;2023-01-28T16:41:15;2.60;1.00
5459;DHT22;2752;49.992;8.422;2023-01-28T16:43:42;2.30;1.00
5459;DHT22;2752;49.992;8.422;2023-01-28T16:46:11;2.40;1.00
5459;DHT22;2752;49.992;8.422;2023-01-28T16:48:37;2.30;1.00
5459;DHT22;2752;49.992;8.422;2023-01-28T16:51:04;2.20;1.00
5459;DHT22;2752;49.992;8.422;2023-01-28T16:53:32;2.20;1.00
5459;DHT22;2752;49.992;8.422;2023-01-28T16:56:01;2.30;1.00
5459;DHT22;2752;49.992;8.422;2023-01-28T16:58:28;2.20;1.00
5459;DHT22;2752;49.992;8.422;2023-01-28T17:00:54;2.20;1.00
5459;DHT22;2752;49.992;8.422;2023-01-28T17:03:21;2.30;1.00
5459;DHT22;2752;49.992;8.422;2023-01-28T17:05:49;2.30;1.00
5459;DHT22;2752;49.992;8.422;2023-01-28T17:08:15;2.30;1.00
5459;DHT22;2752;49.992;8.422;2023-01-28T17:10:42;2.30;1.00
5459;DHT22;2752;49.992;8.422;2023-01-28T17:13:10;2.30;1.00
5459;DHT22;2752;49.992;8.422;2023-01-28T17:15:37;2.40;1.00
5459;DHT22;2752;49.992;8.422;2023-01-28T17:18:03;2.30;1.00